sensor_id;sensor_type;location;lat;lon;timestamp;pressure;altitude;pressure_sealevel;temperature;humidity
41654;BME280;68687;52.030;7.110;2023-07-20T00:02:03;100618.44;;;16.28;90.04
41654;BME280;68687;52.030;7.110;2023-07-20T00:04:36;100621.00;;;16.23;89.40
41654;BME280;68687;52.030;7.110;2023-07-20T00:07:01;100623.88;;;16.28;89.59
41654;BME280;68687;52.030;7.110;2023-07-20T00:09:30;100618.53;;;16.39;88.34
41654;BME280;68687;52.030;7.110;2023-07-20T00:11:56;100619.81;;;16.62;87.26
41654;BME280;68687;52.030;7.110;2023-07-20T00:14:21;100609.59;;;16.39;88.96
41654;BME280;68687;52.030;7.110;2023-07-20T00:16:47;100616.13;;;16.56;87.20
41654;BME280;68687;52.030;7.110;2023-07-20T00:19:17;100618.78;;;16.38;89.71
41654;BME280;68687;52.030;7.110;2023-07-20T00:21:42;100624.47;;;16.55;88.22
41654;BME280;68687;52.030;7.110;2023-07-20T00:24:08;100612.50;;;16.44;89.69
41654;BME280;68687;52.030;7.110;2023-07-20T00:26:33;100607.63;;;16.28;91.23
41654;BME280;68687;52.030;7.110;2023-07-20T00:28:58;100618.94;;;16.18;92.13
41654;BME280;68687;52.030;7.110;2023-07-20T00:31:24;100606.47;;;16.17;92.17
41654;BME280;68687;52.030;7.110;2023-07-20T00:33:49;100600.03;;;16.36;90.87
41654;BME280;68687;52.030;7.110;2023-07-20T00:36:14;100603.94;;;16.41;90.59
41654;BME280;68687;52.030;7.110;2023-07-20T00:38:42;100602.66;;;16.25;92.41
41654;BME280;68687;52.030;7.110;2023-07-20T00:41:08;100599.50;;;16.28;92.21
41654;BME280;68687;52.030;7.110;2023-07-20T00:43:39;100607.69;;;16.21;92.95
41654;BME280;68687;52.030;7.110;2023-07-20T00:46:05;100602.28;;;16.15;94.11
41654;BME280;68687;52.030;7.110;2023-07-20T00:48:31;100609.34;;;16.22;92.88
41654;BME280;68687;52.030;7.110;2023-07-20T00:50:58;100604.75;;;16.23;93.45
41654;BME280;68687;52.030;7.110;2023-07-20T00:53:23;100606.88;;;16.14;94.51
41654;BME280;68687;52.030;7.110;2023-07-20T00:55:49;100606.41;;;16.24;93.39
41654;BME280;68687;52.030;7.110;2023-07-20T00:58:14;100610.53;;;16.26;94.28
41654;BME280;68687;52.030;7.110;2023-07-20T01:00:39;100609.13;;;16.24;94.66
41654;BME280;68687;52.030;7.110;2023-07-20T01:03:05;100602.72;;;16.18;94.63
41654;BME280;68687;52.030;7.110;2023-07-20T01:08:57;100606.34;;;16.30;94.51
41654;BME280;68687;52.030;7.110;2023-07-20T01:14:16;100613.94;;;16.15;95.97
41654;BME280;68687;52.030;7.110;2023-07-20T01:16:42;100602.13;;;16.34;94.25
41654;BME280;68687;52.030;7.110;2023-07-20T01:19:07;100620.69;;;16.56;92.17
41654;BME280;68687;52.030;7.110;2023-07-20T01:24:35;100646.06;;;16.12;97.96
41654;BME280;68687;52.030;7.110;2023-07-20T01:32:46;100631.69;;;15.80;98.99
41654;BME280;68687;52.030;7.110;2023-07-20T01:35:14;100630.56;;;15.62;100.00
41654;BME280;68687;52.030;7.110;2023-07-20T01:37:43;100627.94;;;15.81;99.95
41654;BME280;68687;52.030;7.110;2023-07-20T01:40:10;100629.97;;;15.92;98.88
41654;BME280;68687;52.030;7.110;2023-07-20T01:42:36;100627.03;;;15.93;99.10
41654;BME280;68687;52.030;7.110;2023-07-20T01:45:01;100631.88;;;15.85;99.57
41654;BME280;68687;52.030;7.110;2023-07-20T01:47:26;100636.84;;;15.88;99.89
41654;BME280;68687;52.030;7.110;2023-07-20T01:49:52;100643.28;;;15.62;100.00
41654;BME280;68687;52.030;7.110;2023-07-20T01:52:17;100640.38;;;15.50;100.00
41654;BME280;68687;52.030;7.110;2023-07-20T01:54:42;100638.38;;;15.77;100.00
41654;BME280;68687;52.030;7.110;2023-07-20T01:57:07;100639.66;;;15.74;99.74
41654;BME280;68687;52.030;7.110;2023-07-20T01:59:33;100645.16;;;15.61;100.00
41654;BME280;68687;52.030;7.110;2023-07-20T02:01:58;100639.50;;;15.56;100.00
41654;BME280;68687;52.030;7.110;2023-07-20T02:04:23;100635.13;;;15.55;100.00
41654;BME280;68687;52.030;7.110;2023-07-20T02:06:49;100629.72;;;15.55;99.54
41654;BME280;68687;52.030;7.110;2023-07-20T02:09:14;100624.75;;;15.52;99.84
41654;BME280;68687;52.030;7.110;2023-07-20T02:11:39;100630.34;;;15.57;99.98
41654;BME280;68687;52.030;7.110;2023-07-20T02:14:08;100630.34;;;15.57;98.96
41654;BME280;68687;52.030;7.110;2023-07-20T02:16:33;100627.63;;;15.57;99.07
41654;BME280;68687;52.030;7.110;2023-07-20T02:18:58;100642.84;;;15.52;99.16
41654;BME280;68687;52.030;7.110;2023-07-20T02:21:23;100641.22;;;15.44;98.92
41654;BME280;68687;52.030;7.110;2023-07-20T02:23:52;100631.59;;;15.55;98.94
41654;BME280;68687;52.030;7.110;2023-07-20T02:26:20;100636.78;;;15.56;98.56
41654;BME280;68687;52.030;7.110;2023-07-20T02:28:49;100641.84;;;15.46;99.00
41654;BME280;68687;52.030;7.110;2023-07-20T02:31:14;100641.25;;;15.37;99.16
41654;BME280;68687;52.030;7.110;2023-07-20T02:33:39;100634.78;;;15.45;99.55
41654;BME280;68687;52.030;7.110;2023-07-20T02:36:04;100633.97;;;15.31;99.89
41654;BME280;68687;52.030;7.110;2023-07-20T02:38:30;100641.06;;;15.32;99.82
41654;BME280;68687;52.030;7.110;2023-07-20T02:40:55;100635.69;;;15.26;100.00
41654;BME280;68687;52.030;7.110;2023-07-20T02:43:20;100637.59;;;15.19;100.00
41654;BME280;68687;52.030;7.110;2023-07-20T02:45:45;100631.78;;;15.15;100.00
41654;BME280;68687;52.030;7.110;2023-07-20T02:48:14;100644.44;;;15.21;100.00
41654;BME280;68687;52.030;7.110;2023-07-20T02:50:39;100636.56;;;15.06;100.00
41654;BME280;68687;52.030;7.110;2023-07-20T02:53:04;100644.47;;;15.14;100.00
41654;BME280;68687;52.030;7.110;2023-07-20T02:55:30;100644.03;;;15.18;100.00
41654;BME280;68687;52.030;7.110;2023-07-20T02:57:58;100641.38;;;14.98;100.00
41654;BME280;68687;52.030;7.110;2023-07-20T03:00:26;100644.47;;;15.14;100.00
41654;BME280;68687;52.030;7.110;2023-07-20T03:02:52;100640.75;;;15.02;100.00
41654;BME280;68687;52.030;7.110;2023-07-20T03:05:21;100645.53;;;15.07;100.00
41654;BME280;68687;52.030;7.110;2023-07-20T03:07:46;100648.81;;;15.15;100.00
41654;BME280;68687;52.030;7.110;2023-07-20T03:10:12;100656.69;;;15.24;99.78
41654;BME280;68687;52.030;7.110;2023-07-20T03:12:38;100655.66;;;15.25;99.45
41654;BME280;68687;52.030;7.110;2023-07-20T03:15:03;100653.63;;;15.13;100.00
41654;BME280;68687;52.030;7.110;2023-07-20T03:17:29;100660.69;;;15.01;100.00
41654;BME280;68687;52.030;7.110;2023-07-20T03:19:54;100665.31;;;14.94;100.00
41654;BME280;68687;52.030;7.110;2023-07-20T03:22:19;100660.31;;;14.98;100.00
41654;BME280;68687;52.030;7.110;2023-07-20T03:24:46;100660.31;;;14.98;100.00
41654;BME280;68687;52.030;7.110;2023-07-20T03:27:21;100667.16;;;15.00;100.00
41654;BME280;68687;52.030;7.110;2023-07-20T03:29:52;100665.91;;;14.96;100.00
41654;BME280;68687;52.030;7.110;2023-07-20T03:32:17;100668.00;;;14.94;100.00
41654;BME280;68687;52.030;7.110;2023-07-20T03:34:43;100674.25;;;14.95;100.00
41654;BME280;68687;52.030;7.110;2023-07-20T03:37:09;100684.81;;;15.03;100.00
41654;BME280;68687;52.030;7.110;2023-07-20T03:39:34;100673.59;;;15.12;100.00
41654;BME280;68687;52.030;7.110;2023-07-20T03:41:59;100675.28;;;14.94;100.00
41654;BME280;68687;52.030;7.110;2023-07-20T03:44:25;100673.84;;;14.91;100.00
41654;BME280;68687;52.030;7.110;2023-07-20T03:46:50;100673.63;;;14.93;100.00
41654;BME280;68687;52.030;7.110;2023-07-20T03:49:15;100669.66;;;15.02;100.00
41654;BME280;68687;52.030;7.110;2023-07-20T03:51:41;100677.78;;;14.95;100.00
41654;BME280;68687;52.030;7.110;2023-07-20T03:54:06;100673.19;;;15.02;100.00
41654;BME280;68687;52.030;7.110;2023-07-20T03:56:31;100683.19;;;14.95;100.00
41654;BME280;68687;52.030;7.110;2023-07-20T03:59:03;100684.44;;;14.93;100.00
41654;BME280;68687;52.030;7.110;2023-07-20T04:01:31;100683.16;;;15.08;100.00
41654;BME280;68687;52.030;7.110;2023-07-20T04:04:01;100673.59;;;14.99;100.00
41654;BME280;68687;52.030;7.110;2023-07-20T04:06:27;100674.47;;;14.87;100.00
41654;BME280;68687;52.030;7.110;2023-07-20T04:08:52;100682.53;;;15.00;100.00
41654;BME280;68687;52.030;7.110;2023-07-20T04:11:24;100686.53;;;14.84;100.00
41654;BME280;68687;52.030;7.110;2023-07-20T04:13:49;100684.88;;;14.83;100.00
41654;BME280;68687;52.030;7.110;2023-07-20T04:16:14;100692.78;;;14.84;100.00
41654;BME280;68687;52.030;7.110;2023-07-20T04:18:39;100679.25;;;14.91;100.00
41654;BME280;68687;52.030;7.110;2023-07-20T04:21:08;100687.13;;;14.99;100.00
41654;BME280;68687;52.030;7.110;2023-07-20T04:23:36;100682.34;;;15.01;100.00
41654;BME280;68687;52.030;7.110;2023-07-20T04:26:02;100682.56;;;14.93;100.00
41654;BME280;68687;52.030;7.110;2023-07-20T04:28:27;100690.28;;;14.70;100.00
41654;BME280;68687;52.030;7.110;2023-07-20T04:31:09;100684.66;;;14.78;100.00
41654;BME280;68687;52.030;7.110;2023-07-20T04:33:34;100688.81;;;14.87;100.00
41654;BME280;68687;52.030;7.110;2023-07-20T04:35:59;100687.38;;;14.84;100.00
41654;BME280;68687;52.030;7.110;2023-07-20T04:38:28;100689.00;;;14.79;100.00
41654;BME280;68687;52.030;7.110;2023-07-20T04:40:53;100683.59;;;14.79;99.86
41654;BME280;68687;52.030;7.110;2023-07-20T04:43:21;100694.84;;;14.69;100.00
41654;BME280;68687;52.030;7.110;2023-07-20T04:45:47;100701.31;;;14.62;100.00
41654;BME280;68687;52.030;7.110;2023-07-20T04:48:15;100701.50;;;14.80;100.00
41654;BME280;68687;52.030;7.110;2023-07-20T04:50:41;100702.75;;;14.64;100.00
41654;BME280;68687;52.030;7.110;2023-07-20T04:53:08;100704.41;;;14.78;100.00
41654;BME280;68687;52.030;7.110;2023-07-20T04:55:35;100707.31;;;14.90;100.00
41654;BME280;68687;52.030;7.110;2023-07-20T04:58:02;100704.84;;;14.82;100.00
41654;BME280;68687;52.030;7.110;2023-07-20T05:00:28;100700.25;;;14.69;100.00
41654;BME280;68687;52.030;7.110;2023-07-20T05:02:54;100707.75;;;14.87;100.00
41654;BME280;68687;52.030;7.110;2023-07-20T05:05:19;100702.75;;;14.84;100.00
41654;BME280;68687;52.030;7.110;2023-07-20T05:07:47;100712.31;;;14.80;100.00
41654;BME280;68687;52.030;7.110;2023-07-20T05:10:16;100705.84;;;14.94;100.00
41654;BME280;68687;52.030;7.110;2023-07-20T05:12:41;100713.97;;;14.88;100.00
41654;BME280;68687;52.030;7.110;2023-07-20T05:15:16;100718.50;;;15.00;99.88
41654;BME280;68687;52.030;7.110;2023-07-20T05:17:44;100719.13;;;15.15;99.27
41654;BME280;68687;52.030;7.110;2023-07-20T05:20:10;100721.00;;;15.15;99.58
41654;BME280;68687;52.030;7.110;2023-07-20T05:22:36;100718.47;;;15.27;99.15
41654;BME280;68687;52.030;7.110;2023-07-20T05:25:06;100721.97;;;15.40;98.28
41654;BME280;68687;52.030;7.110;2023-07-20T05:27:31;100724.25;;;15.43;98.07
41654;BME280;68687;52.030;7.110;2023-07-20T05:29:57;100728.91;;;15.17;97.89
41654;BME280;68687;52.030;7.110;2023-07-20T05:32:22;100728.44;;;15.26;98.65
41654;BME280;68687;52.030;7.110;2023-07-20T05:34:53;100731.00;;;15.01;96.36
41654;BME280;68687;52.030;7.110;2023-07-20T05:37:19;100723.47;;;15.23;96.55
41654;BME280;68687;52.030;7.110;2023-07-20T05:39:47;100730.75;;;15.36;97.68
41654;BME280;68687;52.030;7.110;2023-07-20T05:42:19;100732.16;;;15.45;97.22
41654;BME280;68687;52.030;7.110;2023-07-20T05:44:47;100739.19;;;15.66;94.52
41654;BME280;68687;52.030;7.110;2023-07-20T05:47:13;100732.94;;;15.72;94.28
41654;BME280;68687;52.030;7.110;2023-07-20T05:49:38;100732.94;;;16.42;95.19
41654;BME280;68687;52.030;7.110;2023-07-20T05:52:04;100747.25;;;16.24;90.32
41654;BME280;68687;52.030;7.110;2023-07-20T05:54:29;100742.31;;;16.77;91.28
41654;BME280;68687;52.030;7.110;2023-07-20T05:56:54;100752.31;;;16.77;88.64
41654;BME280;68687;52.030;7.110;2023-07-20T05:59:20;100754.59;;;17.05;88.32
41654;BME280;68687;52.030;7.110;2023-07-20T06:01:48;100750.56;;;17.32;88.44
41654;BME280;68687;52.030;7.110;2023-07-20T06:04:14;100752.97;;;17.58;86.96
41654;BME280;68687;52.030;7.110;2023-07-20T06:06:39;100758.09;;;17.67;84.18
41654;BME280;68687;52.030;7.110;2023-07-20T06:09:05;100754.03;;;17.94;84.92
41654;BME280;68687;52.030;7.110;2023-07-20T06:11:32;100753.56;;;18.27;82.55
41654;BME280;68687;52.030;7.110;2023-07-20T06:13:58;100755.31;;;17.91;80.82
41654;BME280;68687;52.030;7.110;2023-07-20T06:16:23;100762.28;;;17.08;81.54
41654;BME280;68687;52.030;7.110;2023-07-20T06:18:48;100760.47;;;17.20;82.50
41654;BME280;68687;52.030;7.110;2023-07-20T06:21:14;100751.00;;;17.29;82.11
41654;BME280;68687;52.030;7.110;2023-07-20T06:23:40;100754.56;;;17.29;82.02
41654;BME280;68687;52.030;7.110;2023-07-20T06:26:08;100756.34;;;16.92;83.25
41654;BME280;68687;52.030;7.110;2023-07-20T06:28:39;100756.25;;;17.06;83.09
41654;BME280;68687;52.030;7.110;2023-07-20T06:31:07;100761.31;;;17.20;82.14
41654;BME280;68687;52.030;7.110;2023-07-20T06:33:33;100759.41;;;17.21;82.82
41654;BME280;68687;52.030;7.110;2023-07-20T06:35:59;100761.75;;;16.92;81.78
41654;BME280;68687;52.030;7.110;2023-07-20T06:38:25;100764.47;;;16.92;79.43
41654;BME280;68687;52.030;7.110;2023-07-20T06:40:51;100768.97;;;16.80;81.51
41654;BME280;68687;52.030;7.110;2023-07-20T06:43:19;100770.34;;;16.89;80.69
41654;BME280;68687;52.030;7.110;2023-07-20T06:45:44;100773.41;;;16.99;80.14
41654;BME280;68687;52.030;7.110;2023-07-20T06:48:16;100778.16;;;17.29;80.13
41654;BME280;68687;52.030;7.110;2023-07-20T06:50:47;100773.50;;;16.86;79.64
41654;BME280;68687;52.030;7.110;2023-07-20T06:53:13;100778.28;;;17.52;79.14
41654;BME280;68687;52.030;7.110;2023-07-20T06:55:38;100780.09;;;17.40;77.14
41654;BME280;68687;52.030;7.110;2023-07-20T06:58:04;100773.63;;;17.59;77.95
41654;BME280;68687;52.030;7.110;2023-07-20T07:00:32;100774.38;;;17.48;77.06
41654;BME280;68687;52.030;7.110;2023-07-20T07:02:58;100774.41;;;17.85;79.29
41654;BME280;68687;52.030;7.110;2023-07-20T07:05:23;100770.03;;;17.84;78.04
41654;BME280;68687;52.030;7.110;2023-07-20T07:07:49;100781.31;;;17.63;75.78
41654;BME280;68687;52.030;7.110;2023-07-20T07:10:14;100785.69;;;17.64;76.01
41654;BME280;68687;52.030;7.110;2023-07-20T07:12:45;100783.22;;;17.99;75.41
41654;BME280;68687;52.030;7.110;2023-07-20T07:15:11;100783.34;;;18.22;75.48
41654;BME280;68687;52.030;7.110;2023-07-20T07:17:36;100784.72;;;18.43;74.63
41654;BME280;68687;52.030;7.110;2023-07-20T07:20:06;100785.81;;;18.23;74.36
41654;BME280;68687;52.030;7.110;2023-07-20T07:22:32;100781.94;;;18.01;72.57
41654;BME280;68687;52.030;7.110;2023-07-20T07:24:57;100784.22;;;17.86;73.11
41654;BME280;68687;52.030;7.110;2023-07-20T07:27:23;100790.41;;;17.93;73.75
41654;BME280;68687;52.030;7.110;2023-07-20T07:29:48;100792.84;;;17.83;71.61
41654;BME280;68687;52.030;7.110;2023-07-20T07:32:15;100795.47;;;18.38;71.14
41654;BME280;68687;52.030;7.110;2023-07-20T07:34:40;100781.09;;;18.31;68.50
41654;BME280;68687;52.030;7.110;2023-07-20T07:37:05;100791.13;;;18.60;67.48
41654;BME280;68687;52.030;7.110;2023-07-20T07:39:31;100784.16;;;18.94;64.89
41654;BME280;68687;52.030;7.110;2023-07-20T07:41:59;100786.41;;;19.09;64.07
41654;BME280;68687;52.030;7.110;2023-07-20T07:44:26;100791.50;;;19.17;62.90
41654;BME280;68687;52.030;7.110;2023-07-20T07:46:54;100797.66;;;19.24;66.47
41654;BME280;68687;52.030;7.110;2023-07-20T07:49:22;100808.31;;;19.26;64.60
41654;BME280;68687;52.030;7.110;2023-07-20T07:51:48;100804.53;;;19.62;61.03
41654;BME280;68687;52.030;7.110;2023-07-20T07:54:13;100808.44;;;19.78;63.78
41654;BME280;68687;52.030;7.110;2023-07-20T07:56:42;100807.91;;;20.04;66.11
41654;BME280;68687;52.030;7.110;2023-07-20T07:59:07;100809.94;;;20.25;60.76
41654;BME280;68687;52.030;7.110;2023-07-20T08:01:33;100814.41;;;20.88;60.41
41654;BME280;68687;52.030;7.110;2023-07-20T08:03:58;100815.75;;;21.36;59.91
41654;BME280;68687;52.030;7.110;2023-07-20T08:06:23;100814.72;;;21.09;60.13
41654;BME280;68687;52.030;7.110;2023-07-20T08:08:51;100822.84;;;21.54;57.09
41654;BME280;68687;52.030;7.110;2023-07-20T08:11:17;100822.47;;;21.28;56.68
41654;BME280;68687;52.030;7.110;2023-07-20T08:13:43;100826.00;;;21.46;55.81
41654;BME280;68687;52.030;7.110;2023-07-20T08:16:09;100815.66;;;21.14;52.31
41654;BME280;68687;52.030;7.110;2023-07-20T08:18:34;100821.75;;;21.55;52.37
41654;BME280;68687;52.030;7.110;2023-07-20T08:20:59;100820.69;;;20.89;52.35
41654;BME280;68687;52.030;7.110;2023-07-20T08:23:25;100819.81;;;20.55;52.93
41654;BME280;68687;52.030;7.110;2023-07-20T08:25:51;100819.97;;;21.44;53.48
41654;BME280;68687;52.030;7.110;2023-07-20T08:28:16;100818.69;;;20.67;49.50
41654;BME280;68687;52.030;7.110;2023-07-20T08:30:46;100821.72;;;22.10;49.98
41654;BME280;68687;52.030;7.110;2023-07-20T08:33:16;100831.84;;;21.04;49.42
41654;BME280;68687;52.030;7.110;2023-07-20T08:35:43;100827.38;;;22.04;52.95
41654;BME280;68687;52.030;7.110;2023-07-20T08:38:08;100826.75;;;22.72;49.31
41654;BME280;68687;52.030;7.110;2023-07-20T08:40:39;100820.72;;;22.97;49.01
41654;BME280;68687;52.030;7.110;2023-07-20T08:43:11;100827.84;;;22.71;46.70
41654;BME280;68687;52.030;7.110;2023-07-20T08:45:39;100818.63;;;22.50;47.86
41654;BME280;68687;52.030;7.110;2023-07-20T08:48:14;100829.09;;;21.71;49.47
41654;BME280;68687;52.030;7.110;2023-07-20T08:50:47;100828.25;;;22.58;50.74
41654;BME280;68687;52.030;7.110;2023-07-20T08:53:20;100827.13;;;21.88;48.50
41654;BME280;68687;52.030;7.110;2023-07-20T08:55:50;100825.16;;;22.76;49.30
41654;BME280;68687;52.030;7.110;2023-07-20T08:58:20;100820.84;;;23.55;49.54
41654;BME280;68687;52.030;7.110;2023-07-20T09:00:49;100831.47;;;23.41;45.35
41654;BME280;68687;52.030;7.110;2023-07-20T09:03:21;100832.28;;;22.50;46.44
41654;BME280;68687;52.030;7.110;2023-07-20T09:05:47;100828.56;;;22.62;45.99
41654;BME280;68687;52.030;7.110;2023-07-20T09:08:18;100829.59;;;22.07;47.12
41654;BME280;68687;52.030;7.110;2023-07-20T09:10:43;100820.00;;;22.80;45.64
41654;BME280;68687;52.030;7.110;2023-07-20T09:13:09;100823.91;;;22.35;45.38
41654;BME280;68687;52.030;7.110;2023-07-20T09:15:34;100822.25;;;23.15;46.60
41654;BME280;68687;52.030;7.110;2023-07-20T09:18:01;100819.53;;;23.20;48.68
41654;BME280;68687;52.030;7.110;2023-07-20T09:20:31;100824.16;;;23.15;45.46
41654;BME280;68687;52.030;7.110;2023-07-20T09:23:06;100820.47;;;23.36;46.36
41654;BME280;68687;52.030;7.110;2023-07-20T09:25:32;100823.72;;;22.69;46.18
41654;BME280;68687;52.030;7.110;2023-07-20T09:28:02;100829.91;;;22.32;46.60
41654;BME280;68687;52.030;7.110;2023-07-20T09:30:30;100833.00;;;21.97;46.38
41654;BME280;68687;52.030;7.110;2023-07-20T09:33:00;100822.91;;;21.98;46.37
41654;BME280;68687;52.030;7.110;2023-07-20T09:35:25;100822.03;;;22.90;46.77
41654;BME280;68687;52.030;7.110;2023-07-20T09:37:58;100821.84;;;23.33;45.17
41654;BME280;68687;52.030;7.110;2023-07-20T09:40:28;100820.28;;;23.48;45.30
41654;BME280;68687;52.030;7.110;2023-07-20T09:42:54;100829.34;;;21.70;44.77
41654;BME280;68687;52.030;7.110;2023-07-20T09:45:41;100827.47;;;22.85;46.45
41654;BME280;68687;52.030;7.110;2023-07-20T09:48:08;100825.06;;;23.62;43.37
41654;BME280;68687;52.030;7.110;2023-07-20T09:50:39;100823.47;;;23.71;43.98
41654;BME280;68687;52.030;7.110;2023-07-20T09:53:06;100822.63;;;23.29;43.65
41654;BME280;68687;52.030;7.110;2023-07-20T09:55:32;100815.59;;;23.85;44.03
41654;BME280;68687;52.030;7.110;2023-07-20T09:58:00;100822.97;;;22.46;45.30
41654;BME280;68687;52.030;7.110;2023-07-20T10:00:25;100821.44;;;22.61;46.25
41654;BME280;68687;52.030;7.110;2023-07-20T10:02:51;100822.34;;;22.44;47.21
41654;BME280;68687;52.030;7.110;2023-07-20T10:05:17;100823.94;;;22.13;47.69
41654;BME280;68687;52.030;7.110;2023-07-20T10:07:46;100832.94;;;21.92;48.33
41654;BME280;68687;52.030;7.110;2023-07-20T10:10:14;100819.69;;;23.03;44.24
41654;BME280;68687;52.030;7.110;2023-07-20T10:12:40;100820.69;;;23.61;43.00
41654;BME280;68687;52.030;7.110;2023-07-20T10:15:20;100812.50;;;23.29;42.95
41654;BME280;68687;52.030;7.110;2023-07-20T10:18:05;100812.09;;;24.00;40.82
41654;BME280;68687;52.030;7.110;2023-07-20T10:20:35;100814.19;;;24.40;41.98
41654;BME280;68687;52.030;7.110;2023-07-20T10:23:02;100812.94;;;24.05;41.53
41654;BME280;68687;52.030;7.110;2023-07-20T10:25:28;100819.16;;;24.58;41.75
41654;BME280;68687;52.030;7.110;2023-07-20T10:27:54;100815.38;;;25.15;38.01
41654;BME280;68687;52.030;7.110;2023-07-20T10:30:20;100813.44;;;25.16;38.54
41654;BME280;68687;52.030;7.110;2023-07-20T10:32:46;100815.09;;;24.96;39.23
41654;BME280;68687;52.030;7.110;2023-07-20T10:35:14;100814.56;;;25.00;39.54
41654;BME280;68687;52.030;7.110;2023-07-20T10:40:32;100805.13;;;23.82;36.04
41654;BME280;68687;52.030;7.110;2023-07-20T10:43:09;100811.78;;;25.15;37.88
41654;BME280;68687;52.030;7.110;2023-07-20T10:45:53;100799.09;;;25.54;38.54
41654;BME280;68687;52.030;7.110;2023-07-20T10:48:25;100799.63;;;25.62;37.40
41654;BME280;68687;52.030;7.110;2023-07-20T10:51:13;100810.63;;;25.72;37.19
41654;BME280;68687;52.030;7.110;2023-07-20T10:53:42;100803.91;;;25.98;35.77
41654;BME280;68687;52.030;7.110;2023-07-20T10:56:15;100799.16;;;25.29;36.37
41654;BME280;68687;52.030;7.110;2023-07-20T10:58:44;100796.44;;;25.04;34.60
41654;BME280;68687;52.030;7.110;2023-07-20T11:01:13;100787.50;;;25.73;35.59
41654;BME280;68687;52.030;7.110;2023-07-20T11:03:39;100786.72;;;25.67;37.74
41654;BME280;68687;52.030;7.110;2023-07-20T11:08:55;100788.31;;;24.21;37.07
41654;BME280;68687;52.030;7.110;2023-07-20T11:11:27;100787.09;;;25.10;39.64
41654;BME280;68687;52.030;7.110;2023-07-20T11:13:57;100786.59;;;25.98;39.68
41654;BME280;68687;52.030;7.110;2023-07-20T11:16:49;100787.28;;;25.59;37.36
41654;BME280;68687;52.030;7.110;2023-07-20T11:19:21;100789.06;;;25.99;37.19
41654;BME280;68687;52.030;7.110;2023-07-20T11:21:56;100780.09;;;26.38;36.94
41654;BME280;68687;52.030;7.110;2023-07-20T11:24:21;100785.50;;;25.99;37.19
41654;BME280;68687;52.030;7.110;2023-07-20T11:26:48;100782.38;;;26.15;36.58
41654;BME280;68687;52.030;7.110;2023-07-20T11:29:16;100787.47;;;25.88;34.67
41654;BME280;68687;52.030;7.110;2023-07-20T11:31:44;100785.13;;;25.36;36.59
41654;BME280;68687;52.030;7.110;2023-07-20T11:34:20;100783.22;;;25.31;35.92
41654;BME280;68687;52.030;7.110;2023-07-20T11:36:50;100782.13;;;24.66;36.29
41654;BME280;68687;52.030;7.110;2023-07-20T11:39:20;100773.31;;;24.84;36.96
41654;BME280;68687;52.030;7.110;2023-07-20T11:41:48;100772.44;;;24.28;38.11
41654;BME280;68687;52.030;7.110;2023-07-20T11:44:16;100776.00;;;24.28;38.70
41654;BME280;68687;52.030;7.110;2023-07-20T11:46:42;100772.22;;;24.90;37.64
41654;BME280;68687;52.030;7.110;2023-07-20T11:49:14;100770.59;;;24.69;38.51
41654;BME280;68687;52.030;7.110;2023-07-20T11:51:40;100770.59;;;24.79;38.60
41654;BME280;68687;52.030;7.110;2023-07-20T11:54:07;100773.34;;;25.10;38.07
41654;BME280;68687;52.030;7.110;2023-07-20T11:56:33;100768.63;;;25.36;36.49
41654;BME280;68687;52.030;7.110;2023-07-20T11:58:58;100764.25;;;25.19;34.27
41654;BME280;68687;52.030;7.110;2023-07-20T12:01:26;100758.78;;;24.79;35.43
41654;BME280;68687;52.030;7.110;2023-07-20T12:04:01;100761.78;;;24.52;35.78
41654;BME280;68687;52.030;7.110;2023-07-20T12:06:30;100758.59;;;23.87;38.12
41654;BME280;68687;52.030;7.110;2023-07-20T12:08:58;100756.69;;;23.98;37.04
41654;BME280;68687;52.030;7.110;2023-07-20T12:11:39;100754.03;;;24.23;36.84
41654;BME280;68687;52.030;7.110;2023-07-20T12:14:13;100758.94;;;24.11;34.95
41654;BME280;68687;52.030;7.110;2023-07-20T12:16:39;100753.13;;;24.02;36.29
41654;BME280;68687;52.030;7.110;2023-07-20T12:19:05;100748.59;;;23.56;35.23
41654;BME280;68687;52.030;7.110;2023-07-20T12:21:33;100753.38;;;23.86;35.73
41654;BME280;68687;52.030;7.110;2023-07-20T12:23:59;100750.44;;;23.55;36.25
41654;BME280;68687;52.030;7.110;2023-07-20T12:26:29;100741.69;;;23.06;36.70
41654;BME280;68687;52.030;7.110;2023-07-20T12:29:00;100745.69;;;23.30;36.82
41654;BME280;68687;52.030;7.110;2023-07-20T12:31:27;100751.34;;;23.19;38.73
41654;BME280;68687;52.030;7.110;2023-07-20T12:33:54;100741.16;;;23.09;37.84
41654;BME280;68687;52.030;7.110;2023-07-20T12:36:22;100744.16;;;23.07;37.19
41654;BME280;68687;52.030;7.110;2023-07-20T12:38:47;100737.75;;;22.97;38.75
41654;BME280;68687;52.030;7.110;2023-07-20T12:41:13;100746.09;;;23.12;38.31
41654;BME280;68687;52.030;7.110;2023-07-20T12:43:40;100743.69;;;23.21;37.54
41654;BME280;68687;52.030;7.110;2023-07-20T12:46:05;100744.09;;;22.70;37.04
41654;BME280;68687;52.030;7.110;2023-07-20T12:48:35;100734.16;;;22.91;37.65
41654;BME280;68687;52.030;7.110;2023-07-20T12:51:02;100734.03;;;21.95;39.30
41654;BME280;68687;52.030;7.110;2023-07-20T12:53:28;100739.97;;;22.68;38.65
41654;BME280;68687;52.030;7.110;2023-07-20T12:55:53;100729.50;;;22.87;38.29
41654;BME280;68687;52.030;7.110;2023-07-20T12:58:18;100734.31;;;22.74;38.64
41654;BME280;68687;52.030;7.110;2023-07-20T13:00:47;100735.22;;;22.85;38.08
41654;BME280;68687;52.030;7.110;2023-07-20T13:03:12;100728.66;;;22.54;38.37
41654;BME280;68687;52.030;7.110;2023-07-20T13:05:40;100728.31;;;22.77;39.32
41654;BME280;68687;52.030;7.110;2023-07-20T13:08:08;100733.41;;;23.01;39.25
41654;BME280;68687;52.030;7.110;2023-07-20T13:10:37;100729.69;;;22.80;39.35